createdAt,value
2019-02-22T00:00:09.320Z,17.18
2019-02-22T00:00:49.918Z,17.16
2019-02-22T00:01:30.517Z,17.21
2019-02-22T00:02:11.125Z,17.21
2019-02-22T00:02:51.728Z,17.19
2019-02-22T00:03:32.387Z,17.22
2019-02-22T00:04:13.000Z,17.21
2019-02-22T00:04:53.814Z,17.16
2019-02-22T00:05:34.486Z,17.16
2019-02-22T00:06:15.113Z,17.14
2019-02-22T00:06:55.750Z,17.19
2019-02-22T00:07:36.338Z,17.14
2019-02-22T00:08:17.005Z,17.12
2019-02-22T00:08:57.594Z,17.18
2019-02-22T00:09:48.817Z,17.18
2019-02-22T00:10:18.842Z,17.12
2019-02-22T00:10:59.489Z,17.18
2019-02-22T00:11:40.169Z,17.11
2019-02-22T00:12:20.773Z,17.18
2019-02-22T00:13:01.385Z,17.12
2019-02-22T00:13:41.996Z,17.18
2019-02-22T00:14:22.660Z,17.18
2019-02-22T00:15:03.314Z,17.07
2019-02-22T00:15:43.972Z,17.14
2019-02-22T00:16:24.598Z,17.16
2019-02-22T00:17:05.194Z,17.18
2019-02-22T00:17:45.792Z,17.18
2019-02-22T00:18:26.404Z,17.08
2019-02-22T00:19:07.046Z,17.07
2019-02-22T00:19:48.597Z,17.14
2019-02-22T00:20:28.302Z,17.14
2019-02-22T00:21:08.908Z,17.06
2019-02-22T00:21:49.560Z,17.12
2019-02-22T00:22:30.162Z,17.15
2019-02-22T00:23:10.762Z,17.11
2019-02-22T00:23:51.362Z,17.14
2019-02-22T00:24:31.970Z,17.03
2019-02-22T00:25:12.590Z,17.08
2019-02-22T00:25:53.202Z,17.11
2019-02-22T00:26:33.802Z,17.04
2019-02-22T00:27:14.388Z,17.08
2019-02-22T00:27:55.008Z,17.12
2019-02-22T00:28:35.606Z,17.08
2019-02-22T00:29:16.215Z,17.12
2019-02-22T00:29:56.831Z,17.12
2019-02-22T00:30:37.438Z,17.15
2019-02-22T00:31:18.076Z,17.11
2019-02-22T00:31:58.668Z,17.08
2019-02-22T00:32:39.268Z,17.11
2019-02-22T00:33:19.866Z,17.08
2019-02-22T00:34:00.519Z,17.07
2019-02-22T00:34:41.101Z,17.07
2019-02-22T00:35:21.671Z,17.07
2019-02-22T00:36:02.357Z,17.16
2019-02-22T00:36:42.891Z,17.07
2019-02-22T00:37:23.480Z,17.06
2019-02-22T00:38:04.068Z,17.15
2019-02-22T00:38:44.708Z,17.22
2019-02-22T00:39:25.310Z,17.08
2019-02-22T00:40:05.923Z,17.18
2019-02-22T00:40:46.522Z,17.07
2019-02-22T00:41:27.138Z,17.16
2019-02-22T00:42:07.766Z,17.14
2019-02-22T00:42:50.233Z,17.15
2019-02-22T00:43:28.990Z,17.12
2019-02-22T00:44:09.584Z,17.12
2019-02-22T00:44:50.182Z,17.12
2019-02-22T00:45:30.788Z,17.12
2019-02-22T00:46:11.388Z,17.06
2019-02-22T00:46:52.003Z,17.07
2019-02-22T00:47:32.608Z,17.07
2019-02-22T00:48:13.208Z,17.12
2019-02-22T00:48:53.802Z,17.07
2019-02-22T00:49:34.396Z,17.07
2019-02-22T00:50:14.998Z,17.14
2019-02-22T00:50:55.600Z,17.08
2019-02-22T00:51:36.186Z,17.07
2019-02-22T00:52:16.794Z,17.08
2019-02-22T00:52:57.386Z,17.11
2019-02-22T00:53:37.991Z,17.07
2019-02-22T00:54:18.603Z,17.06
2019-02-22T00:54:59.196Z,17.04
2019-02-22T00:55:39.902Z,17.07
2019-02-22T00:56:20.518Z,17.08
2019-02-22T00:57:01.124Z,17.08
2019-02-22T00:57:41.724Z,17.07
2019-02-22T00:58:22.315Z,17.06
2019-02-22T00:59:02.919Z,17.06
2019-02-22T00:59:43.514Z,17.07
2019-02-22T01:00:24.119Z,17.07
2019-02-22T01:01:05.801Z,17.08
2019-02-22T01:01:46.418Z,17.11
2019-02-22T01:02:27.014Z,17.11
2019-02-22T01:03:11.356Z,17.08
2019-02-22T01:03:51.979Z,17.06
2019-02-22T01:04:32.596Z,17.12
2019-02-22T01:05:13.232Z,17.03
2019-02-22T01:05:53.852Z,17.06
2019-02-22T01:06:34.448Z,17.08
2019-02-22T01:07:15.264Z,17.06
2019-02-22T01:07:56.106Z,17.03
2019-02-22T01:08:36.920Z,17
2019-02-22T01:09:17.532Z,17.03
2019-02-22T01:09:58.230Z,17.11
2019-02-22T01:10:38.838Z,17.12
2019-02-22T01:11:19.416Z,17.04
2019-02-22T01:12:00.026Z,17.03
2019-02-22T01:12:40.632Z,17.12
2019-02-22T01:13:21.397Z,17.08
2019-02-22T01:14:01.904Z,17.08
2019-02-22T01:14:42.519Z,17.14
2019-02-22T01:15:23.120Z,17.04
2019-02-22T01:16:03.720Z,17.07
2019-02-22T01:16:44.318Z,17.11
2019-02-22T01:17:24.946Z,17.06
2019-02-22T01:18:05.574Z,17.06
2019-02-22T01:18:46.166Z,17.11
2019-02-22T01:19:26.770Z,17.14
2019-02-22T01:20:08.987Z,17.11
2019-02-22T01:20:54.205Z,17.12
2019-02-22T01:21:30.218Z,17.12
2019-02-22T01:22:10.826Z,17.08
2019-02-22T01:22:51.412Z,17.14
2019-02-22T01:23:32.004Z,17.07
2019-02-22T01:24:12.605Z,17.07
2019-02-22T01:24:53.219Z,17.11
2019-02-22T01:25:33.818Z,17.07
2019-02-22T01:26:14.435Z,17.14
2019-02-22T01:26:55.042Z,17.07
2019-02-22T01:27:35.677Z,17.08
2019-02-22T01:28:16.280Z,17.12
2019-02-22T01:28:56.906Z,17.07
2019-02-22T01:29:37.513Z,17.03
2019-02-22T01:30:18.122Z,16.98
2019-02-22T01:30:58.742Z,17.03
2019-02-22T01:31:39.336Z,17.06
2019-02-22T01:32:19.942Z,17.11
2019-02-22T01:33:00.544Z,17.08
2019-02-22T01:33:41.152Z,17.03
2019-02-22T01:34:21.740Z,17.04
2019-02-22T01:35:02.342Z,17.08
2019-02-22T01:35:42.941Z,17.12
2019-02-22T01:36:23.548Z,17.03
2019-02-22T01:37:04.152Z,17.12
2019-02-22T01:37:44.754Z,17.08
2019-02-22T01:38:25.366Z,16.98
2019-02-22T01:39:06.018Z,17.01
2019-02-22T01:39:46.622Z,17.03
2019-02-22T01:40:27.220Z,17.03
2019-02-22T01:41:07.816Z,16.98
2019-02-22T01:41:48.400Z,17.03
2019-02-22T01:42:29.018Z,17
2019-02-22T01:43:09.618Z,17
2019-02-22T01:43:50.230Z,17
2019-02-22T01:44:30.826Z,17.03
2019-02-22T01:45:11.486Z,16.98
2019-02-22T01:45:52.060Z,17.01
2019-02-22T01:46:32.675Z,16.98
2019-02-22T01:47:13.278Z,16.98
2019-02-22T01:47:53.908Z,16.98
2019-02-22T01:48:34.508Z,17.01
2019-02-22T01:49:15.110Z,17.01
2019-02-22T01:49:55.698Z,17.01
2019-02-22T01:50:36.301Z,17.07
2019-02-22T01:51:16.911Z,16.97
2019-02-22T01:51:57.513Z,16.98
2019-02-22T01:52:38.122Z,16.96
2019-02-22T01:53:18.760Z,16.98
2019-02-22T01:53:59.372Z,16.96
2019-02-22T01:54:39.967Z,17.01
2019-02-22T01:55:20.574Z,16.97
2019-02-22T01:56:01.160Z,17.01
2019-02-22T01:56:41.794Z,17.01
2019-02-22T01:57:22.400Z,17
2019-02-22T01:58:03.016Z,17.04
2019-02-22T01:58:48.507Z,17.03
2019-02-22T01:59:24.278Z,17
2019-02-22T02:00:04.878Z,16.98
2019-02-22T02:00:45.489Z,16.96
2019-02-22T02:01:26.080Z,16.96
2019-02-22T02:02:06.700Z,17
2019-02-22T02:02:47.304Z,16.93
2019-02-22T02:03:27.892Z,16.98
2019-02-22T02:04:08.494Z,16.97
2019-02-22T02:04:49.100Z,16.96
2019-02-22T02:05:29.698Z,17.01
2019-02-22T02:06:10.289Z,17.01
2019-02-22T02:06:50.913Z,16.98
2019-02-22T02:07:31.510Z,16.89
2019-02-22T02:08:12.110Z,16.96
2019-02-22T02:08:52.729Z,17
2019-02-22T02:09:33.338Z,16.96
2019-02-22T02:10:13.951Z,17
2019-02-22T02:10:54.648Z,16.93
2019-02-22T02:11:35.162Z,16.91
2019-02-22T02:12:15.762Z,17.01
2019-02-22T02:12:56.356Z,17.03
2019-02-22T02:13:36.952Z,16.91
2019-02-22T02:14:17.556Z,17.03
2019-02-22T02:14:58.160Z,16.93
2019-02-22T02:15:38.766Z,16.96
2019-02-22T02:16:19.376Z,16.93
2019-02-22T02:16:59.965Z,16.93
2019-02-22T02:17:40.562Z,16.91
2019-02-22T02:18:21.144Z,16.98
2019-02-22T02:19:01.738Z,17.03
2019-02-22T02:19:42.341Z,16.98
2019-02-22T02:20:22.979Z,16.93
2019-02-22T02:21:03.677Z,16.94
2019-02-22T02:21:44.261Z,16.93
2019-02-22T02:22:24.874Z,16.88
2019-02-22T02:23:05.503Z,17
2019-02-22T02:23:46.101Z,16.91
2019-02-22T02:24:26.702Z,16.97
2019-02-22T02:25:07.314Z,16.91
2019-02-22T02:25:47.915Z,17.01
2019-02-22T02:26:28.508Z,17
2019-02-22T02:27:09.104Z,16.98
2019-02-22T02:27:49.698Z,16.96
2019-02-22T02:28:30.298Z,16.94
2019-02-22T02:29:10.891Z,16.91
2019-02-22T02:29:51.503Z,16.96
2019-02-22T02:30:32.107Z,16.96
2019-02-22T02:31:12.712Z,16.89
2019-02-22T02:31:53.325Z,16.91
2019-02-22T02:32:33.920Z,16.91
2019-02-22T02:33:14.501Z,17.03
2019-02-22T02:33:55.104Z,16.98
2019-02-22T02:34:35.715Z,16.96
2019-02-22T02:35:16.318Z,16.91
2019-02-22T02:35:56.925Z,16.96
2019-02-22T02:36:37.524Z,17
2019-02-22T02:37:18.132Z,16.91
2019-02-22T02:37:58.754Z,16.91
2019-02-22T02:38:39.362Z,16.94
2019-02-22T02:39:19.982Z,16.96
2019-02-22T02:40:00.583Z,17.03
2019-02-22T02:40:41.188Z,16.98
2019-02-22T02:41:21.825Z,16.97
2019-02-22T02:42:02.483Z,16.94
2019-02-22T02:42:43.064Z,16.93
2019-02-22T02:43:23.681Z,16.94
2019-02-22T02:44:04.280Z,16.98
2019-02-22T02:44:44.956Z,16.88
2019-02-22T02:45:27.166Z,16.88
2019-02-22T02:46:07.770Z,16.96
2019-02-22T02:46:48.474Z,16.96
2019-02-22T02:47:29.134Z,16.86
2019-02-22T02:48:09.764Z,16.98
2019-02-22T02:48:50.446Z,16.91
2019-02-22T02:49:31.062Z,16.89
2019-02-22T02:50:11.665Z,16.94
2019-02-22T02:50:52.276Z,16.91
2019-02-22T02:51:32.890Z,16.91
2019-02-22T02:52:13.499Z,16.88
2019-02-22T02:52:54.102Z,16.96
2019-02-22T02:53:34.737Z,16.96
2019-02-22T02:54:15.349Z,16.97
2019-02-22T02:54:56.002Z,16.91
2019-02-22T02:55:36.620Z,17
2019-02-22T02:56:17.238Z,16.94
2019-02-22T02:56:57.987Z,16.94
2019-02-22T02:57:38.607Z,16.94
2019-02-22T02:58:19.246Z,16.89
2019-02-22T02:59:00.509Z,16.94
2019-02-22T02:59:41.113Z,16.91
2019-02-22T03:00:21.791Z,16.88
2019-02-22T03:01:02.388Z,16.94
2019-02-22T03:01:43.228Z,16.93
2019-02-22T03:02:23.851Z,16.98
2019-02-22T03:03:04.505Z,16.88
2019-02-22T03:03:45.102Z,16.96
2019-02-22T03:04:25.849Z,16.91
2019-02-22T03:05:08.035Z,16.93
2019-02-22T03:05:48.622Z,16.91
2019-02-22T03:06:29.248Z,16.86
2019-02-22T03:07:09.854Z,16.93
2019-02-22T03:07:50.480Z,16.88
2019-02-22T03:08:31.085Z,16.85
2019-02-22T03:09:11.681Z,16.88
2019-02-22T03:09:52.284Z,16.91
2019-02-22T03:10:32.914Z,16.88
2019-02-22T03:11:20.441Z,16.88
2019-02-22T03:11:54.117Z,16.88
2019-02-22T03:12:34.746Z,16.88
2019-02-22T03:13:15.324Z,16.91
2019-02-22T03:13:55.943Z,16.91
2019-02-22T03:14:36.579Z,16.86
2019-02-22T03:15:17.197Z,16.89
2019-02-22T03:15:57.792Z,16.83
2019-02-22T03:16:38.401Z,16.83
2019-02-22T03:17:19.010Z,16.93
2019-02-22T03:17:59.613Z,16.88
2019-02-22T03:18:40.216Z,16.93
2019-02-22T03:19:20.824Z,16.91
2019-02-22T03:20:01.419Z,16.88
2019-02-22T03:20:42.023Z,16.88
2019-02-22T03:21:22.625Z,16.89
2019-02-22T03:22:03.227Z,16.85
2019-02-22T03:22:43.821Z,16.94
2019-02-22T03:23:24.448Z,16.89
2019-02-22T03:24:05.037Z,16.88
2019-02-22T03:24:45.647Z,16.91
2019-02-22T03:25:26.247Z,16.93
2019-02-22T03:26:06.849Z,16.91
2019-02-22T03:26:47.453Z,16.88
2019-02-22T03:27:28.065Z,16.94
2019-02-22T03:28:08.665Z,16.93
2019-02-22T03:28:49.249Z,16.93
2019-02-22T03:29:29.838Z,16.88
2019-02-22T03:30:10.449Z,16.91
2019-02-22T03:30:51.038Z,16.91
2019-02-22T03:31:31.725Z,16.89
2019-02-22T03:32:12.305Z,16.86
2019-02-22T03:32:52.920Z,16.89
2019-02-22T03:33:33.503Z,16.88
2019-02-22T03:34:14.098Z,16.83
2019-02-22T03:34:54.702Z,16.86
2019-02-22T03:35:35.301Z,16.91
2019-02-22T03:36:15.911Z,16.96
2019-02-22T03:36:56.514Z,16.93
2019-02-22T03:37:37.121Z,16.88
2019-02-22T03:38:17.737Z,16.88
2019-02-22T03:38:58.369Z,16.89
2019-02-22T03:39:38.951Z,16.88
2019-02-22T03:40:19.589Z,16.93
2019-02-22T03:41:00.181Z,16.91
2019-02-22T03:41:40.789Z,16.88
2019-02-22T03:42:21.381Z,16.91
2019-02-22T03:43:02.025Z,16.91
2019-02-22T03:43:42.637Z,16.88
2019-02-22T03:44:23.237Z,16.86
2019-02-22T03:45:03.855Z,16.88
2019-02-22T03:45:44.496Z,16.91
2019-02-22T03:46:25.165Z,16.85
2019-02-22T03:47:05.697Z,16.88
2019-02-22T03:47:46.314Z,16.82
2019-02-22T03:48:26.935Z,16.89
2019-02-22T03:49:07.561Z,16.88
2019-02-22T03:49:48.199Z,16.93
2019-02-22T03:50:28.800Z,16.86
2019-02-22T03:51:09.415Z,16.83
2019-02-22T03:51:50.011Z,16.89
2019-02-22T03:52:30.614Z,16.89
2019-02-22T03:53:11.221Z,16.89
2019-02-22T03:53:51.853Z,16.81
2019-02-22T03:54:32.482Z,16.89
2019-02-22T03:55:13.069Z,16.86
2019-02-22T03:55:53.665Z,16.94
2019-02-22T03:56:34.272Z,16.88
2019-02-22T03:57:14.873Z,16.89
2019-02-22T03:57:55.471Z,16.91
2019-02-22T03:58:36.075Z,16.88
2019-02-22T03:59:16.688Z,16.91
2019-02-22T03:59:57.317Z,16.88
2019-02-22T04:00:37.945Z,16.81
2019-02-22T04:01:18.535Z,16.91
2019-02-22T04:01:59.149Z,16.85
2019-02-22T04:02:39.748Z,16.94
2019-02-22T04:03:20.359Z,16.93
2019-02-22T04:04:00.952Z,16.93
2019-02-22T04:04:41.561Z,16.89
2019-02-22T04:05:22.169Z,16.91
2019-02-22T04:06:02.766Z,16.94
2019-02-22T04:06:43.393Z,16.85
2019-02-22T04:07:23.977Z,16.89
2019-02-22T04:08:07.090Z,16.88
2019-02-22T04:08:45.282Z,16.88
2019-02-22T04:09:25.787Z,16.89
2019-02-22T04:10:06.394Z,16.91
2019-02-22T04:10:46.990Z,16.94
2019-02-22T04:11:27.613Z,16.89
2019-02-22T04:12:08.222Z,16.88
2019-02-22T04:12:48.819Z,16.91
2019-02-22T04:13:29.439Z,16.88
2019-02-22T04:14:10.101Z,16.89
2019-02-22T04:14:50.691Z,16.89
2019-02-22T04:15:31.321Z,16.86
2019-02-22T04:16:11.935Z,16.85
2019-02-22T04:16:52.594Z,16.88
2019-02-22T04:17:33.178Z,16.82
2019-02-22T04:18:13.774Z,16.88
2019-02-22T04:18:54.385Z,16.81
2019-02-22T04:19:34.997Z,16.86
2019-02-22T04:20:15.583Z,16.86
2019-02-22T04:20:56.195Z,16.86
2019-02-22T04:21:36.806Z,16.85
2019-02-22T04:22:17.410Z,16.89
2019-02-22T04:22:58.007Z,16.88
2019-02-22T04:23:38.619Z,16.89
2019-02-22T04:24:19.206Z,16.88
2019-02-22T04:24:59.831Z,16.91
2019-02-22T04:25:40.433Z,16.96
2019-02-22T04:26:21.163Z,16.86
2019-02-22T04:27:01.632Z,16.94
2019-02-22T04:27:42.231Z,16.96
2019-02-22T04:28:22.829Z,16.86
2019-02-22T04:29:03.429Z,16.89
2019-02-22T04:29:44.033Z,16.91
2019-02-22T04:30:24.626Z,16.93
2019-02-22T04:31:05.225Z,16.83
2019-02-22T04:31:45.821Z,16.88
2019-02-22T04:32:26.461Z,16.96
2019-02-22T04:33:07.083Z,16.86
2019-02-22T04:33:47.690Z,16.96
2019-02-22T04:34:28.302Z,16.97
2019-02-22T04:35:08.900Z,16.88
2019-02-22T04:35:49.493Z,16.91
2019-02-22T04:36:30.137Z,16.88
2019-02-22T04:37:10.749Z,16.89
2019-02-22T04:37:51.365Z,16.91
2019-02-22T04:38:31.960Z,16.93
2019-02-22T04:39:12.561Z,16.96
2019-02-22T04:39:53.167Z,16.91
2019-02-22T04:40:33.769Z,16.81
2019-02-22T04:41:14.373Z,16.91
2019-02-22T04:41:58.201Z,16.83
2019-02-22T04:42:35.603Z,16.96
2019-02-22T04:43:16.214Z,16.86
2019-02-22T04:43:56.798Z,16.94
2019-02-22T04:44:37.388Z,16.86
2019-02-22T04:45:17.983Z,16.89
2019-02-22T04:45:58.609Z,16.96
2019-02-22T04:46:39.219Z,16.96
2019-02-22T04:47:19.829Z,16.96
2019-02-22T04:48:00.445Z,16.81
2019-02-22T04:48:41.049Z,16.96
2019-02-22T04:49:21.657Z,16.94
2019-02-22T04:50:02.263Z,16.88
2019-02-22T04:50:42.871Z,16.88
2019-02-22T04:51:23.507Z,16.89
2019-02-22T04:52:04.113Z,16.94
2019-02-22T04:52:44.701Z,16.83
2019-02-22T04:53:25.308Z,16.86
2019-02-22T04:54:05.905Z,16.85
2019-02-22T04:54:46.514Z,16.91
2019-02-22T04:55:29.226Z,16.89
2019-02-22T04:56:07.704Z,16.93
2019-02-22T04:56:48.311Z,16.86
2019-02-22T04:57:28.905Z,16.89
2019-02-22T04:58:09.517Z,16.83
2019-02-22T04:58:50.147Z,16.91
2019-02-22T04:59:30.750Z,16.86
2019-02-22T05:00:11.338Z,16.88
2019-02-22T05:00:51.935Z,16.86
2019-02-22T05:01:32.524Z,16.91
2019-02-22T05:02:13.123Z,16.89
2019-02-22T05:02:53.725Z,16.85
2019-02-22T05:03:34.331Z,16.83
2019-02-22T05:04:14.945Z,16.89
2019-02-22T05:04:55.557Z,16.85
2019-02-22T05:05:36.157Z,16.79
2019-02-22T05:06:16.751Z,16.89
2019-02-22T05:06:57.351Z,16.78
2019-02-22T05:07:37.945Z,16.85
2019-02-22T05:08:18.555Z,16.86
2019-02-22T05:08:59.177Z,16.82
2019-02-22T05:09:39.797Z,16.81
2019-02-22T05:10:20.408Z,16.91
2019-02-22T05:11:01.007Z,16.88
2019-02-22T05:11:41.615Z,16.83
2019-02-22T05:12:22.246Z,16.91
2019-02-22T05:13:02.820Z,16.85
2019-02-22T05:13:43.444Z,16.88
2019-02-22T05:14:24.042Z,16.86
2019-02-22T05:15:12.225Z,16.82
2019-02-22T05:15:45.272Z,16.82
2019-02-22T05:16:25.877Z,16.88
2019-02-22T05:17:06.519Z,16.82
2019-02-22T05:17:47.119Z,16.82
2019-02-22T05:18:27.739Z,16.83
2019-02-22T05:19:08.343Z,16.78
2019-02-22T05:19:48.931Z,16.88
2019-02-22T05:20:29.573Z,16.75
2019-02-22T05:21:10.201Z,16.82
2019-02-22T05:21:50.814Z,16.78
2019-02-22T05:22:31.453Z,16.81
2019-02-22T05:23:12.062Z,16.88
2019-02-22T05:23:52.657Z,16.79
2019-02-22T05:24:33.263Z,16.82
2019-02-22T05:25:13.881Z,16.83
2019-02-22T05:25:54.503Z,16.78
2019-02-22T05:26:35.090Z,16.83
2019-02-22T05:27:15.709Z,16.79
2019-02-22T05:27:56.311Z,16.76
2019-02-22T05:28:36.957Z,16.85
2019-02-22T05:29:17.575Z,16.82
2019-02-22T05:29:58.178Z,16.78
2019-02-22T05:30:38.785Z,16.78
2019-02-22T05:31:19.462Z,16.78
2019-02-22T05:32:00.069Z,16.79
2019-02-22T05:32:40.658Z,16.79
2019-02-22T05:33:21.261Z,16.76
2019-02-22T05:34:01.870Z,16.78
2019-02-22T05:34:42.485Z,16.83
2019-02-22T05:35:23.093Z,16.81
2019-02-22T05:36:03.721Z,16.75
2019-02-22T05:36:44.438Z,16.79
2019-02-22T05:37:24.933Z,16.79
2019-02-22T05:38:05.535Z,16.79
2019-02-22T05:38:46.189Z,16.79
2019-02-22T05:39:26.781Z,16.81
2019-02-22T05:40:07.381Z,16.85
2019-02-22T05:40:47.996Z,16.81
2019-02-22T05:41:28.604Z,16.81
2019-02-22T05:42:09.195Z,16.78
2019-02-22T05:42:49.802Z,16.79
2019-02-22T05:43:30.395Z,16.78
2019-02-22T05:44:11.003Z,16.78
2019-02-22T05:44:51.653Z,16.81
2019-02-22T05:45:32.267Z,16.79
2019-02-22T05:46:12.907Z,16.81
2019-02-22T05:47:00.170Z,16.81
2019-02-22T05:47:34.107Z,16.76
2019-02-22T05:48:14.729Z,16.78
2019-02-22T05:48:55.325Z,16.83
2019-02-22T05:49:35.925Z,16.83
2019-02-22T05:50:16.519Z,16.79
2019-02-22T05:50:57.107Z,16.78
2019-02-22T05:51:37.743Z,16.81
2019-02-22T05:52:18.357Z,16.78
2019-02-22T05:52:58.978Z,16.78
2019-02-22T05:53:39.569Z,16.76
2019-02-22T05:54:20.175Z,16.75
2019-02-22T05:55:00.785Z,16.73
2019-02-22T05:55:44.061Z,16.78
2019-02-22T05:56:22.030Z,16.83
2019-02-22T05:57:03.001Z,16.76
2019-02-22T05:57:43.605Z,16.78
2019-02-22T05:58:24.270Z,16.78
2019-02-22T05:59:05.407Z,16.81
2019-02-22T05:59:46.023Z,16.81
2019-02-22T06:00:26.793Z,16.78
2019-02-22T06:01:07.364Z,16.79
2019-02-22T06:01:48.159Z,16.82
2019-02-22T06:02:28.547Z,16.78
2019-02-22T06:03:09.154Z,16.76
2019-02-22T06:03:49.767Z,16.75
2019-02-22T06:04:30.371Z,16.81
2019-02-22T06:05:10.989Z,16.82
2019-02-22T06:05:51.737Z,16.78
2019-02-22T06:06:32.339Z,16.81
2019-02-22T06:07:14.514Z,16.81
2019-02-22T06:07:53.547Z,16.7
2019-02-22T06:08:34.143Z,16.67
2019-02-22T06:09:14.753Z,16.78
2019-02-22T06:09:55.389Z,16.73
2019-02-22T06:10:36.023Z,16.75
2019-02-22T06:11:16.682Z,16.67
2019-02-22T06:11:57.283Z,16.79
2019-02-22T06:12:37.905Z,16.78
2019-02-22T06:13:18.485Z,16.71
2019-02-22T06:13:59.073Z,16.71
2019-02-22T06:14:39.672Z,16.67
2019-02-22T06:15:20.273Z,16.7
2019-02-22T06:16:00.911Z,16.67
2019-02-22T06:16:41.525Z,16.76
2019-02-22T06:17:22.131Z,16.82
2019-02-22T06:18:02.733Z,16.73
2019-02-22T06:18:43.341Z,16.71
2019-02-22T06:19:23.935Z,16.79
2019-02-22T06:20:04.537Z,16.67
2019-02-22T06:20:45.142Z,16.71
2019-02-22T06:21:25.750Z,16.68
2019-02-22T06:22:06.345Z,16.76
2019-02-22T06:22:46.969Z,16.73
2019-02-22T06:23:27.572Z,16.7
2019-02-22T06:24:08.184Z,16.76
2019-02-22T06:24:48.790Z,16.67
2019-02-22T06:25:29.404Z,16.75
2019-02-22T06:26:10.015Z,16.73
2019-02-22T06:26:50.626Z,16.76
2019-02-22T06:27:31.225Z,16.67
2019-02-22T06:28:11.810Z,16.75
2019-02-22T06:28:52.417Z,16.76
2019-02-22T06:29:33.015Z,16.7
2019-02-22T06:30:13.620Z,16.79
2019-02-22T06:30:54.227Z,16.76
2019-02-22T06:31:34.893Z,16.75
2019-02-22T06:32:15.571Z,16.81
2019-02-22T06:32:56.139Z,16.73
2019-02-22T06:33:36.753Z,16.75
2019-02-22T06:34:17.885Z,16.78
2019-02-22T06:34:58.565Z,16.81
2019-02-22T06:35:39.197Z,16.81
2019-02-22T06:36:20.001Z,16.83
2019-02-22T06:37:02.440Z,16.82
2019-02-22T06:37:42.579Z,16.81
2019-02-22T06:38:24.469Z,16.75
2019-02-22T06:39:05.137Z,16.71
2019-02-22T06:39:50.788Z,16.78
2019-02-22T06:40:31.375Z,16.79
2019-02-22T06:41:11.988Z,16.81
2019-02-22T06:41:52.619Z,16.76
2019-02-22T06:42:33.219Z,16.73
2019-02-22T06:43:13.811Z,16.71
2019-02-22T06:43:54.407Z,16.79
2019-02-22T06:44:35.055Z,16.76
2019-02-22T06:45:15.731Z,16.83
2019-02-22T06:45:56.380Z,16.76
2019-02-22T06:46:37.011Z,16.76
2019-02-22T06:47:17.627Z,16.81
2019-02-22T06:47:58.269Z,16.78
2019-02-22T06:48:38.884Z,16.78
2019-02-22T06:49:19.585Z,16.76
2019-02-22T06:50:00.320Z,16.81
2019-02-22T06:50:40.807Z,16.78
2019-02-22T06:51:21.386Z,16.78
2019-02-22T06:52:02.014Z,16.81
2019-02-22T06:52:42.661Z,16.76
2019-02-22T06:53:23.259Z,16.79
2019-02-22T06:54:03.871Z,16.79
2019-02-22T06:54:44.489Z,16.81
2019-02-22T06:55:25.103Z,16.75
2019-02-22T06:56:05.725Z,16.81
2019-02-22T06:56:46.330Z,16.81
2019-02-22T06:57:26.938Z,16.83
2019-02-22T06:58:07.576Z,16.82
2019-02-22T06:58:48.167Z,16.85
2019-02-22T06:59:28.776Z,16.79
2019-02-22T07:00:09.371Z,16.83
2019-02-22T07:00:49.988Z,16.81
2019-02-22T07:01:30.589Z,16.83
2019-02-22T07:02:11.199Z,16.79
2019-02-22T07:02:51.859Z,16.85
2019-02-22T07:03:32.491Z,16.78
2019-02-22T07:04:13.097Z,16.76
2019-02-22T07:04:53.694Z,16.85
2019-02-22T07:05:34.311Z,16.89
2019-02-22T07:06:14.900Z,16.89
2019-02-22T07:06:55.497Z,16.88
2019-02-22T07:07:36.104Z,16.85
2019-02-22T07:08:16.718Z,16.78
2019-02-22T07:08:57.363Z,16.83
2019-02-22T07:09:37.961Z,16.86
2019-02-22T07:10:18.569Z,16.78
2019-02-22T07:10:59.161Z,16.91
2019-02-22T07:11:39.766Z,16.88
2019-02-22T07:12:20.364Z,16.88
2019-02-22T07:13:00.961Z,16.86
2019-02-22T07:13:41.571Z,16.86
2019-02-22T07:14:22.175Z,16.83
2019-02-22T07:15:02.785Z,16.91
2019-02-22T07:15:43.391Z,16.88
2019-02-22T07:16:24.005Z,16.89
2019-02-22T07:17:04.621Z,16.86
2019-02-22T07:17:45.237Z,16.85
2019-02-22T07:18:25.853Z,16.86
2019-02-22T07:19:06.528Z,16.91
2019-02-22T07:19:47.141Z,16.83
2019-02-22T07:20:27.741Z,16.86
2019-02-22T07:21:08.361Z,16.86
2019-02-22T07:21:52.314Z,16.93
2019-02-22T07:22:29.589Z,16.91
2019-02-22T07:23:12.165Z,16.91
2019-02-22T07:23:52.791Z,16.88
2019-02-22T07:24:33.780Z,16.86
2019-02-22T07:25:14.396Z,16.91
2019-02-22T07:25:54.999Z,16.89
2019-02-22T07:26:36.034Z,16.91
2019-02-22T07:27:16.632Z,16.86
2019-02-22T07:27:57.227Z,16.91
2019-02-22T07:28:37.825Z,16.88
2019-02-22T07:29:18.434Z,16.86
2019-02-22T07:29:59.052Z,16.83
2019-02-22T07:30:39.662Z,16.96
2019-02-22T07:31:20.309Z,16.93
2019-02-22T07:32:05.618Z,16.88
2019-02-22T07:32:41.625Z,16.89
2019-02-22T07:33:22.156Z,16.86
2019-02-22T07:34:02.776Z,16.88
2019-02-22T07:34:43.385Z,16.88
2019-02-22T07:35:24.316Z,16.94
2019-02-22T07:36:04.903Z,16.93
2019-02-22T07:36:45.691Z,16.94
2019-02-22T07:37:26.283Z,16.89
2019-02-22T07:38:06.893Z,16.86
2019-02-22T07:38:47.484Z,16.91
2019-02-22T07:39:28.381Z,16.88
2019-02-22T07:40:08.678Z,16.88
2019-02-22T07:40:49.270Z,16.96
2019-02-22T07:41:29.877Z,16.93
2019-02-22T07:42:10.482Z,16.93
2019-02-22T07:42:51.637Z,16.89
2019-02-22T07:43:32.247Z,16.91
2019-02-22T07:44:12.934Z,16.93
2019-02-22T07:44:53.526Z,16.94
2019-02-22T07:45:34.122Z,16.91
2019-02-22T07:46:14.775Z,16.96
2019-02-22T07:46:56.872Z,16.96
2019-02-22T07:47:37.478Z,16.96
2019-02-22T07:48:18.085Z,16.93
2019-02-22T07:48:58.705Z,16.98
2019-02-22T07:49:39.297Z,16.98
2019-02-22T07:50:19.918Z,17.03
2019-02-22T07:51:00.528Z,16.98
2019-02-22T07:51:41.138Z,17.06
2019-02-22T07:52:21.726Z,17.07
2019-02-22T07:53:02.326Z,17.03
2019-02-22T07:53:42.917Z,17.08
2019-02-22T07:54:23.558Z,17.03
2019-02-22T07:55:04.180Z,17.07
2019-02-22T07:55:44.789Z,17.07
2019-02-22T07:56:25.440Z,17.12
2019-02-22T07:57:06.031Z,17.08
2019-02-22T07:57:46.649Z,17.07
2019-02-22T07:58:27.309Z,17.15
2019-02-22T07:59:07.909Z,17.08
2019-02-22T07:59:48.512Z,17.08
2019-02-22T08:00:29.109Z,17.08
2019-02-22T08:01:09.698Z,17.08
2019-02-22T08:01:50.297Z,17.16
2019-02-22T08:02:30.908Z,17.16
2019-02-22T08:03:11.504Z,17.12
2019-02-22T08:03:52.127Z,17.11
2019-02-22T08:04:32.719Z,17.14
2019-02-22T08:05:13.323Z,17.16
2019-02-22T08:05:53.930Z,17.11
2019-02-22T08:06:34.544Z,17.12
2019-02-22T08:07:15.189Z,17.11
2019-02-22T08:07:55.804Z,17.12
2019-02-22T08:08:36.463Z,17.14
2019-02-22T08:09:17.058Z,17.16
2019-02-22T08:09:57.760Z,17.08
2019-02-22T08:10:38.574Z,17.22
2019-02-22T08:11:19.276Z,17.14
2019-02-22T08:11:59.893Z,17.06
2019-02-22T08:12:40.567Z,17.12
2019-02-22T08:13:21.391Z,17.12
2019-02-22T08:14:02.094Z,17.14
2019-02-22T08:14:42.742Z,17.08
2019-02-22T08:15:23.401Z,17.11
2019-02-22T08:16:04.012Z,17.08
2019-02-22T08:16:44.644Z,17.08
2019-02-22T08:17:25.250Z,17.08
2019-02-22T08:18:05.837Z,17.04
2019-02-22T08:18:46.452Z,17.12
2019-02-22T08:19:27.058Z,17.11
2019-02-22T08:20:07.687Z,17.04
2019-02-22T08:20:48.276Z,17.08
2019-02-22T08:21:28.875Z,17.06
2019-02-22T08:22:09.463Z,17.08
2019-02-22T08:22:50.079Z,17.06
2019-02-22T08:23:30.744Z,17.06
2019-02-22T08:24:11.328Z,17.11
2019-02-22T08:24:51.927Z,17.06
2019-02-22T08:25:32.528Z,17.12
2019-02-22T08:26:13.151Z,17.08
2019-02-22T08:26:53.760Z,17.18
2019-02-22T08:27:34.372Z,17.18
2019-02-22T08:28:14.996Z,17.18
2019-02-22T08:28:55.650Z,17.21
2019-02-22T08:29:38.203Z,17.21
2019-02-22T08:30:16.884Z,17.18
2019-02-22T08:30:57.493Z,17.14
2019-02-22T08:31:38.090Z,17.21
2019-02-22T08:32:18.698Z,17.19
2019-02-22T08:32:59.328Z,17.18
2019-02-22T08:33:40.030Z,17.21
2019-02-22T08:34:20.565Z,17.21
2019-02-22T08:35:01.165Z,17.22
2019-02-22T08:35:41.762Z,17.15
2019-02-22T08:36:22.353Z,17.16
2019-02-22T08:37:02.988Z,17.14
2019-02-22T08:37:43.600Z,17.16
2019-02-22T08:38:24.643Z,17.18
2019-02-22T08:39:05.239Z,17.15
2019-02-22T08:39:57.434Z,17.19
2019-02-22T08:40:26.498Z,17.11
2019-02-22T08:41:07.119Z,17.11
2019-02-22T08:41:47.728Z,17.07
2019-02-22T08:42:28.356Z,17.11
2019-02-22T08:43:08.986Z,17.08
2019-02-22T08:43:49.604Z,17.11
2019-02-22T08:44:30.192Z,17.07